createdAt,value
2019-05-09T00:01:33.991Z,79.40
2019-05-09T00:04:03.349Z,78.30
2019-05-09T00:06:34.030Z,76.50
2019-05-09T00:09:03.783Z,75.50
2019-05-09T00:11:33.587Z,77.30
2019-05-09T00:14:04.189Z,79.10
2019-05-09T00:16:33.555Z,78.80
2019-05-09T00:19:03.242Z,77.50
2019-05-09T00:21:43.760Z,76.30
2019-05-09T00:24:13.860Z,79.80
2019-05-09T00:26:44.266Z,79.70
2019-05-09T00:29:17.256Z,76.60
2019-05-09T00:31:56.126Z,78.70
2019-05-09T00:34:37.812Z,79.50
2019-05-09T00:37:06.283Z,77.30
2019-05-09T00:39:34.998Z,77.30
2019-05-09T00:42:04.344Z,77.10
2019-05-09T00:44:40.688Z,78.10
2019-05-09T00:47:13.729Z,80.10
2019-05-09T00:49:43.493Z,80.20
2019-05-09T00:52:14.107Z,80.70
2019-05-09T00:54:43.766Z,80.40
2019-05-09T00:57:13.928Z,79.30
2019-05-09T00:59:44.523Z,81.10
2019-05-09T01:02:13.153Z,81.10
2019-05-09T01:04:43.804Z,83.50
2019-05-09T01:07:13.910Z,82.30
2019-05-09T01:09:43.964Z,83.00
2019-05-09T01:12:14.343Z,83.80
2019-05-09T01:14:43.377Z,85.00
2019-05-09T01:17:13.549Z,85.90
2019-05-09T01:19:43.272Z,86.70
2019-05-09T01:22:13.217Z,87.80
2019-05-09T01:24:44.090Z,88.30
2019-05-09T01:27:14.099Z,88.50
2019-05-09T01:29:43.919Z,89.50
2019-05-09T01:32:14.522Z,90.20
2019-05-09T01:34:43.704Z,90.30
2019-05-09T01:37:14.094Z,90.60
2019-05-09T01:39:44.029Z,91.00
2019-05-09T01:42:13.758Z,91.80
2019-05-09T01:44:44.010Z,91.80
2019-05-09T01:47:14.117Z,92.20
2019-05-09T01:49:43.136Z,92.10
2019-05-09T01:52:13.759Z,92.20
2019-05-09T01:54:43.611Z,92.20
2019-05-09T01:57:13.819Z,92.50
2019-05-09T01:59:44.396Z,92.30
2019-05-09T02:02:14.261Z,92.20
2019-05-09T02:04:43.937Z,92.20
2019-05-09T02:07:13.286Z,92.20
2019-05-09T02:09:43.459Z,92.10
2019-05-09T02:12:13.976Z,92.50
2019-05-09T02:14:44.926Z,92.70
2019-05-09T02:17:23.137Z,92.90
2019-05-09T02:19:52.827Z,93.00
2019-05-09T02:22:34.478Z,93.00
2019-05-09T02:25:06.167Z,92.70
2019-05-09T02:27:34.620Z,93.10
2019-05-09T02:30:05.913Z,93.30
2019-05-09T02:32:35.758Z,93.30
2019-05-09T02:35:06.806Z,93.30
2019-05-09T02:37:38.547Z,93.10
2019-05-09T02:40:09.721Z,93.10
2019-05-09T02:42:39.627Z,93.30
2019-05-09T02:45:08.494Z,93.50
2019-05-09T02:47:38.461Z,93.50
2019-05-09T02:50:09.481Z,93.50
2019-05-09T02:52:39.581Z,93.50
2019-05-09T02:55:10.314Z,93.20
2019-05-09T02:57:39.194Z,93.30
2019-05-09T03:00:12.283Z,93.20
2019-05-09T03:02:48.509Z,93.30
2019-05-09T03:05:19.240Z,93.30
2019-05-09T03:07:51.904Z,93.40
2019-05-09T03:10:21.422Z,93.70
2019-05-09T03:12:50.766Z,93.60
2019-05-09T03:15:19.847Z,93.80
2019-05-09T03:17:49.662Z,93.50
2019-05-09T03:20:28.821Z,93.60
2019-05-09T03:22:58.263Z,93.40
2019-05-09T03:25:28.930Z,93.50
2019-05-09T03:27:59.055Z,93.70
2019-05-09T03:30:31.851Z,93.70
2019-05-09T03:33:00.438Z,93.80
2019-05-09T03:35:28.935Z,93.80
2019-05-09T03:38:02.003Z,93.50
2019-05-09T03:40:30.535Z,93.30
2019-05-09T03:42:59.700Z,93.70
2019-05-09T03:45:28.166Z,93.70
2019-05-09T03:47:58.342Z,93.70
2019-05-09T03:50:27.999Z,93.60
2019-05-09T03:52:57.963Z,93.40
2019-05-09T03:55:28.303Z,93.40
2019-05-09T03:58:01.608Z,93.50
2019-05-09T04:00:30.142Z,93.60
2019-05-09T04:02:58.616Z,93.90
2019-05-09T04:05:27.396Z,93.80
2019-05-09T04:07:58.344Z,94.00
2019-05-09T04:10:28.203Z,94.00
2019-05-09T04:12:59.486Z,94.00
2019-05-09T04:15:27.548Z,93.80
2019-05-09T04:17:57.896Z,94.30
2019-05-09T04:20:27.687Z,94.30
2019-05-09T04:22:59.292Z,93.90
2019-05-09T04:25:28.577Z,93.70
2019-05-09T04:27:58.327Z,93.60
2019-05-09T04:30:27.503Z,93.90
2019-05-09T04:32:58.045Z,93.80
2019-05-09T04:35:27.976Z,93.80
2019-05-09T04:37:58.441Z,93.60
2019-05-09T04:40:31.643Z,93.30
2019-05-09T04:43:10.797Z,93.40
2019-05-09T04:45:41.752Z,93.50
2019-05-09T04:48:13.207Z,93.40
2019-05-09T04:50:40.078Z,93.50
2019-05-09T04:53:09.566Z,93.20
2019-05-09T04:55:39.257Z,93.20
2019-05-09T04:58:09.313Z,92.80
2019-05-09T05:00:57.284Z,92.70
2019-05-09T05:03:28.246Z,92.70
2019-05-09T05:05:58.195Z,92.70
2019-05-09T05:08:28.413Z,92.50
2019-05-09T05:10:58.251Z,92.40
2019-05-09T05:13:29.605Z,92.50
2019-05-09T05:15:57.927Z,92.50
2019-05-09T05:18:28.427Z,92.60
2019-05-09T05:20:57.797Z,92.30
2019-05-09T05:23:31.342Z,92.50
2019-05-09T05:26:00.085Z,92.20
2019-05-09T05:28:28.611Z,91.90
2019-05-09T05:30:58.178Z,92.30
2019-05-09T05:33:44.983Z,92.50
2019-05-09T05:36:15.404Z,91.80
2019-05-09T05:38:44.135Z,91.50
2019-05-09T05:41:12.946Z,91.60
2019-05-09T05:43:44.547Z,91.80
2019-05-09T05:46:29.722Z,91.20
2019-05-09T05:48:58.249Z,91.30
2019-05-09T05:51:27.668Z,91.60
2019-05-09T05:53:57.327Z,91.70
2019-05-09T05:56:27.983Z,91.40
2019-05-09T05:58:58.025Z,91.80
2019-05-09T06:01:27.829Z,91.00
2019-05-09T06:03:58.659Z,91.20
2019-05-09T06:06:27.932Z,91.40
2019-05-09T06:08:58.080Z,91.10
2019-05-09T06:11:48.219Z,91.20
2019-05-09T06:14:18.189Z,91.60
2019-05-09T06:16:48.561Z,91.70
2019-05-09T06:19:17.857Z,90.80
2019-05-09T06:21:48.547Z,91.50
2019-05-09T06:24:17.841Z,90.30
2019-05-09T06:26:47.904Z,90.50
2019-05-09T06:29:17.726Z,90.90
2019-05-09T06:31:48.432Z,91.20
2019-05-09T06:34:18.783Z,91.20
2019-05-09T06:36:48.852Z,90.70
2019-05-09T06:39:19.864Z,90.90
2019-05-09T06:41:48.722Z,91.20
2019-05-09T06:44:21.850Z,90.80
2019-05-09T06:46:58.556Z,90.50
2019-05-09T06:49:31.749Z,90.10
2019-05-09T06:51:59.536Z,90.20
2019-05-09T06:54:28.034Z,88.40
2019-05-09T06:56:58.497Z,90.20
2019-05-09T06:59:28.303Z,90.00
2019-05-09T07:02:01.659Z,88.80
2019-05-09T07:04:38.134Z,87.60
2019-05-09T07:07:23.855Z,88.30
2019-05-09T07:09:58.553Z,87.20
2019-05-09T07:12:27.469Z,85.40
2019-05-09T07:14:58.293Z,85.90
2019-05-09T07:17:31.671Z,86.60
2019-05-09T07:19:59.227Z,84.20
2019-05-09T07:22:32.353Z,85.90
2019-05-09T07:25:06.849Z,85.80
2019-05-09T07:27:43.481Z,85.70
2019-05-09T07:30:22.684Z,86.00
2019-05-09T07:33:11.816Z,84.80
2019-05-09T07:35:40.694Z,83.90
2019-05-09T07:38:12.184Z,83.10
2019-05-09T07:40:42.088Z,83.40
2019-05-09T07:43:10.715Z,80.40
2019-05-09T07:45:42.426Z,80.90
2019-05-09T07:48:10.947Z,80.10
2019-05-09T07:50:42.145Z,81.20
2019-05-09T07:53:10.969Z,80.50
2019-05-09T07:55:40.984Z,78.00
2019-05-09T07:58:14.230Z,76.90
2019-05-09T08:00:41.564Z,77.80
2019-05-09T08:03:13.110Z,77.70
2019-05-09T08:05:44.030Z,77.20
2019-05-09T08:08:18.575Z,76.70
2019-05-09T08:10:47.792Z,78.20
2019-05-09T08:13:23.686Z,77.90
2019-05-09T08:15:49.542Z,78.70
2019-05-09T08:18:18.084Z,76.90
2019-05-09T08:20:47.916Z,78.00
2019-05-09T08:23:18.095Z,78.80
2019-05-09T08:25:48.500Z,77.70
2019-05-09T08:28:19.979Z,77.50
2019-05-09T08:30:54.445Z,79.20
2019-05-09T08:33:23.004Z,79.10
2019-05-09T08:35:52.773Z,79.10
2019-05-09T08:38:22.993Z,79.60
2019-05-09T08:40:53.225Z,79.60
2019-05-09T08:43:23.545Z,77.20
2019-05-09T08:45:52.167Z,78.20
2019-05-09T08:48:20.761Z,76.90
2019-05-09T08:50:50.947Z,78.70
2019-05-09T08:53:19.469Z,76.20
2019-05-09T08:55:48.258Z,74.90
2019-05-09T08:58:19.565Z,75.50
2019-05-09T09:00:48.993Z,75.10
2019-05-09T09:03:18.985Z,75.60
2019-05-09T09:05:48.581Z,76.10
2019-05-09T09:08:18.335Z,75.20
2019-05-09T09:10:48.788Z,75.80
2019-05-09T09:13:17.950Z,74.60
2019-05-09T09:16:05.477Z,74.20
2019-05-09T09:18:17.927Z,74.40
2019-05-09T09:20:52.974Z,73.80
2019-05-09T09:23:39.789Z,72.80
2019-05-09T09:25:54.475Z,71.50
2019-05-09T09:28:22.970Z,70.50
2019-05-09T09:30:51.722Z,68.10
2019-05-09T09:33:20.349Z,65.90
2019-05-09T09:35:49.219Z,63.50
2019-05-09T09:38:18.078Z,65.10
2019-05-09T09:40:47.738Z,64.60
2019-05-09T09:43:19.236Z,63.10
2019-05-09T09:45:49.639Z,62.00
2019-05-09T09:48:19.917Z,63.60
2019-05-09T09:50:51.883Z,62.60
2019-05-09T09:53:23.622Z,61.70
2019-05-09T09:56:08.738Z,62.20
2019-05-09T09:58:38.078Z,60.50
2019-05-09T10:01:24.810Z,61.70
2019-05-09T10:03:54.983Z,60.80
2019-05-09T10:06:25.292Z,58.80
2019-05-09T10:08:57.841Z,59.50
2019-05-09T10:11:28.652Z,61.50
2019-05-09T10:14:00.444Z,63.40
2019-05-09T10:16:41.296Z,63.80
2019-05-09T10:19:18.399Z,63.00
2019-05-09T10:21:54.277Z,61.70
2019-05-09T10:25:04.566Z,60.30
2019-05-09T10:27:38.607Z,59.40
2019-05-09T10:30:13.669Z,58.60
2019-05-09T10:32:43.818Z,56.70
2019-05-09T10:35:17.586Z,55.60
2019-05-09T10:37:48.542Z,56.10
2019-05-09T10:40:22.918Z,55.00
2019-05-09T10:43:02.200Z,56.30
2019-05-09T10:45:44.624Z,56.00
2019-05-09T10:48:13.179Z,55.10
2019-05-09T10:50:53.620Z,56.90
2019-05-09T10:53:17.969Z,56.40
2019-05-09T10:55:48.120Z,57.60
2019-05-09T10:58:20.200Z,57.50
2019-05-09T11:00:48.744Z,57.10
2019-05-09T11:03:18.117Z,55.00
2019-05-09T11:05:47.756Z,56.10
2019-05-09T11:08:18.474Z,55.40
2019-05-09T11:10:48.443Z,54.70
2019-05-09T11:13:18.158Z,54.90
2019-05-09T11:15:48.439Z,55.10
2019-05-09T11:18:18.522Z,54.00
2019-05-09T11:20:47.176Z,53.70
2019-05-09T11:23:19.675Z,53.50
2019-05-09T11:25:48.509Z,53.70
2019-05-09T11:28:18.828Z,54.60
2019-05-09T11:30:52.345Z,54.70
2019-05-09T11:33:20.804Z,53.60
2019-05-09T11:35:49.360Z,54.90
2019-05-09T11:38:30.963Z,55.00
2019-05-09T11:40:48.551Z,54.80
2019-05-09T11:43:18.177Z,55.20
2019-05-09T11:45:47.900Z,54.50
2019-05-09T11:48:18.609Z,55.20
2019-05-09T11:50:49.354Z,54.00
2019-05-09T11:53:17.836Z,52.80
2019-05-09T11:55:48.406Z,51.80
2019-05-09T12:01:08.084Z,52.40
2019-05-09T12:03:38.705Z,54.00
2019-05-09T12:06:07.988Z,54.80
2019-05-09T12:08:38.726Z,55.00
2019-05-09T12:11:08.410Z,54.00
2019-05-09T12:13:38.050Z,52.20
2019-05-09T12:16:06.706Z,52.90
2019-05-09T12:18:37.663Z,52.90
2019-05-09T12:21:08.414Z,51.80
2019-05-09T12:23:38.090Z,51.50
2019-05-09T12:26:08.776Z,51.30
2019-05-09T12:28:38.667Z,50.30
2019-05-09T12:31:07.904Z,50.80
2019-05-09T12:33:36.687Z,50.70
2019-05-09T12:36:09.274Z,49.70
2019-05-09T12:38:38.878Z,49.10
2019-05-09T12:41:07.876Z,49.50
2019-05-09T12:43:38.571Z,49.40
2019-05-09T12:46:08.755Z,47.80
2019-05-09T12:48:37.329Z,48.20
2019-05-09T12:51:08.193Z,49.30
2019-05-09T12:53:39.373Z,51.30
2019-05-09T12:56:08.248Z,53.20
2019-05-09T12:58:36.838Z,53.80
2019-05-09T13:01:07.515Z,53.40
2019-05-09T13:03:39.013Z,54.20
2019-05-09T13:06:08.259Z,54.30
2019-05-09T13:08:38.546Z,54.20
2019-05-09T13:11:08.000Z,54.90
2019-05-09T13:13:40.846Z,55.00
2019-05-09T13:16:43.433Z,56.10
2019-05-09T13:19:00.231Z,55.90
2019-05-09T13:21:32.215Z,55.80
2019-05-09T13:23:59.575Z,55.70
2019-05-09T13:26:28.813Z,55.50
2019-05-09T13:28:59.133Z,54.30
2019-05-09T13:31:30.654Z,53.80
2019-05-09T13:34:01.078Z,54.60
2019-05-09T13:36:29.588Z,54.30
2019-05-09T13:39:04.679Z,55.00
2019-05-09T13:41:29.101Z,56.00
2019-05-09T13:44:04.881Z,57.10
2019-05-09T13:46:29.765Z,57.50
2019-05-09T13:49:11.335Z,57.50
2019-05-09T13:51:47.042Z,57.70
2019-05-09T13:54:07.077Z,57.20
2019-05-09T13:56:37.247Z,56.00
2019-05-09T13:59:07.988Z,55.90
2019-05-09T14:01:37.782Z,53.80
2019-05-09T14:04:07.978Z,53.40
2019-05-09T14:06:38.936Z,51.80
2019-05-09T14:09:10.545Z,52.90
2019-05-09T14:11:39.353Z,55.80
2019-05-09T14:14:07.853Z,57.70
2019-05-09T14:16:38.776Z,58.50
2019-05-09T14:19:29.787Z,58.60
2019-05-09T14:21:39.695Z,58.80
2019-05-09T14:24:15.020Z,58.30
2019-05-09T14:26:38.567Z,55.40
2019-05-09T14:29:12.125Z,58.20
2019-05-09T14:31:38.871Z,62.20
2019-05-09T14:34:08.787Z,61.30
2019-05-09T14:36:39.097Z,61.50
2019-05-09T14:39:09.317Z,63.10
2019-05-09T14:41:39.139Z,62.50
2019-05-09T14:44:09.322Z,63.40
2019-05-09T14:46:39.148Z,61.30
2019-05-09T14:49:08.124Z,61.30
2019-05-09T14:51:38.054Z,63.80
2019-05-09T14:54:08.633Z,63.10
2019-05-09T14:56:42.042Z,61.80
2019-05-09T14:59:10.915Z,59.70
2019-05-09T15:01:43.660Z,59.20
2019-05-09T15:04:10.004Z,58.40
2019-05-09T15:06:38.838Z,59.90
2019-05-09T15:09:09.461Z,62.50
2019-05-09T15:11:39.969Z,62.80
2019-05-09T15:14:08.569Z,62.30
2019-05-09T15:16:39.314Z,62.50
2019-05-09T15:19:08.671Z,62.90
2019-05-09T15:21:38.243Z,61.50
2019-05-09T15:24:09.238Z,60.20
2019-05-09T15:26:39.741Z,61.20
2019-05-09T15:29:11.211Z,63.60
2019-05-09T15:31:39.774Z,65.10
2019-05-09T15:34:10.352Z,65.30
2019-05-09T15:36:38.601Z,66.50
2019-05-09T15:39:10.010Z,67.70
2019-05-09T15:41:40.106Z,68.80
2019-05-09T15:44:08.835Z,68.60
2019-05-09T15:46:44.975Z,67.60
2019-05-09T15:49:14.994Z,67.60
2019-05-09T15:51:43.692Z,68.10
2019-05-09T15:54:13.823Z,68.70
2019-05-09T15:56:44.303Z,67.00
2019-05-09T15:59:13.302Z,68.20
2019-05-09T16:01:49.022Z,67.20
2019-05-09T16:04:21.318Z,66.50
2019-05-09T16:06:50.232Z,66.70
2019-05-09T16:09:18.170Z,66.50
2019-05-09T16:11:48.421Z,65.00
2019-05-09T16:14:18.421Z,65.10
2019-05-09T16:16:47.926Z,65.70
2019-05-09T16:19:16.815Z,65.60
2019-05-09T16:21:47.771Z,66.50
2019-05-09T16:24:18.878Z,66.40
2019-05-09T16:26:48.831Z,66.70
2019-05-09T16:29:18.021Z,66.80
2019-05-09T16:31:48.221Z,67.60
2019-05-09T16:34:17.749Z,66.80
2019-05-09T16:36:47.993Z,64.50
2019-05-09T16:39:17.922Z,65.00
2019-05-09T16:41:48.359Z,64.00
2019-05-09T16:44:18.241Z,64.00
2019-05-09T16:46:48.505Z,64.70
2019-05-09T16:49:19.992Z,64.30
2019-05-09T16:51:48.590Z,64.20
2019-05-09T16:54:18.118Z,63.60
2019-05-09T16:56:46.884Z,63.30
2019-05-09T16:59:17.553Z,62.50
2019-05-09T17:01:50.114Z,61.70
2019-05-09T17:04:19.092Z,62.30
2019-05-09T17:06:49.923Z,65.30
2019-05-09T17:09:18.782Z,67.20
2019-05-09T17:11:48.135Z,67.50
2019-05-09T17:14:18.939Z,67.70
2019-05-09T17:16:48.250Z,67.80
2019-05-09T17:19:19.485Z,68.10
2019-05-09T17:21:58.671Z,68.30
2019-05-09T17:24:29.590Z,69.80
2019-05-09T17:27:08.721Z,71.60
2019-05-09T17:29:38.306Z,72.50
2019-05-09T17:32:50.758Z,72.80
2019-05-09T17:35:20.322Z,66.10
2019-05-09T17:37:50.318Z,66.10
2019-05-09T17:40:19.900Z,65.30
2019-05-09T17:42:50.088Z,65.10
2019-05-09T17:45:19.926Z,64.80
2019-05-09T17:47:49.587Z,66.50
2019-05-09T17:50:19.391Z,65.30
2019-05-09T17:52:54.218Z,66.40
2019-05-09T17:55:24.470Z,69.00
2019-05-09T17:57:54.178Z,69.20
2019-05-09T18:00:28.012Z,70.00
2019-05-09T18:03:18.183Z,71.20
2019-05-09T18:05:51.471Z,71.90
2019-05-09T18:08:37.717Z,72.80
2019-05-09T18:11:14.325Z,74.00
2019-05-09T18:13:43.578Z,74.70
2019-05-09T18:16:15.042Z,75.20
2019-05-09T18:18:47.892Z,75.70
2019-05-09T18:21:17.767Z,76.30
2019-05-09T18:23:47.983Z,74.30
2019-05-09T18:26:18.677Z,73.70
2019-05-09T18:28:48.541Z,73.20
2019-05-09T18:31:18.417Z,73.80
2019-05-09T18:33:50.436Z,72.70
2019-05-09T18:36:20.926Z,72.90
2019-05-09T18:38:52.518Z,72.00
2019-05-09T18:41:23.030Z,71.60
2019-05-09T18:44:01.791Z,70.60
2019-05-09T18:46:38.458Z,70.20
2019-05-09T18:49:14.456Z,70.30
2019-05-09T18:52:03.741Z,71.00
2019-05-09T18:58:27.104Z,71.60
2019-05-09T19:00:36.593Z,72.40
2019-05-09T19:03:08.034Z,71.90
2019-05-09T19:05:39.817Z,72.30
2019-05-09T19:08:10.722Z,72.30
2019-05-09T19:10:41.194Z,73.10
2019-05-09T19:13:16.119Z,73.00
2019-05-09T19:16:03.114Z,73.50
2019-05-09T19:18:51.127Z,73.40
2019-05-09T19:21:32.558Z,73.90
2019-05-09T19:24:02.412Z,73.80
2019-05-09T19:26:35.379Z,74.00
2019-05-09T19:29:09.120Z,74.40
2019-05-09T19:31:39.159Z,74.80
2019-05-09T19:34:09.019Z,74.10
2019-05-09T19:36:39.077Z,74.80
2019-05-09T19:39:09.543Z,75.70
2019-05-09T19:41:39.420Z,75.90
2019-05-09T19:44:09.209Z,76.00
2019-05-09T19:46:39.558Z,75.50
2019-05-09T19:49:09.273Z,75.90
2019-05-09T19:51:39.083Z,75.00
2019-05-09T19:54:08.909Z,74.60
2019-05-09T19:56:47.231Z,74.60
2019-05-09T19:59:18.217Z,74.60
2019-05-09T20:01:48.226Z,74.80
2019-05-09T20:04:18.168Z,74.80
2019-05-09T20:06:48.032Z,75.60
2019-05-09T20:09:25.183Z,76.60
2019-05-09T20:12:02.184Z,76.80
2019-05-09T20:14:33.803Z,77.20
2019-05-09T20:17:03.936Z,77.60
2019-05-09T20:19:35.286Z,77.50
2019-05-09T20:22:05.097Z,77.20
2019-05-09T20:24:38.866Z,76.40
2019-05-09T20:27:40.731Z,76.10
2019-05-09T20:30:10.603Z,74.80
2019-05-09T20:32:40.368Z,75.00
2019-05-09T20:35:10.280Z,75.80
2019-05-09T20:37:40.529Z,76.60
2019-05-09T20:40:10.510Z,77.80
2019-05-09T20:42:40.626Z,77.10
2019-05-09T20:45:10.995Z,77.40
2019-05-09T20:47:40.839Z,77.40
2019-05-09T20:50:13.927Z,77.80
2019-05-09T20:52:43.875Z,78.80
2019-05-09T20:55:15.721Z,78.80
2019-05-09T20:57:51.975Z,78.20
2019-05-09T21:00:30.762Z,78.80
2019-05-09T21:03:00.767Z,78.50
2019-05-09T21:05:30.670Z,79.10
2019-05-09T21:08:01.991Z,79.60
2019-05-09T21:10:33.486Z,79.80
2019-05-09T21:13:06.325Z,80.40
2019-05-09T21:15:36.587Z,79.40
2019-05-09T21:18:08.510Z,79.60
2019-05-09T21:20:42.370Z,79.70
2019-05-09T21:23:24.894Z,80.00
2019-05-09T21:25:53.265Z,80.50
2019-05-09T21:28:23.106Z,80.90
2019-05-09T21:30:57.070Z,80.70
2019-05-09T21:33:27.708Z,80.60
2019-05-09T21:35:58.977Z,80.90
2019-05-09T21:38:31.110Z,81.10
2019-05-09T21:41:00.844Z,81.70
2019-05-09T21:43:35.036Z,81.80
2019-05-09T21:46:06.407Z,82.10
2019-05-09T21:48:38.824Z,82.10
2019-05-09T21:51:08.665Z,82.30
2019-05-09T21:53:41.592Z,81.40
2019-05-09T21:56:11.515Z,81.90
2019-05-09T21:58:41.541Z,81.80
2019-05-09T22:04:16.652Z,82.10
2019-05-09T22:06:49.244Z,82.70
2019-05-09T22:09:19.173Z,83.00
2019-05-09T22:11:51.523Z,83.30
2019-05-09T22:14:23.193Z,83.00
2019-05-09T22:16:59.190Z,83.00
2019-05-09T22:19:32.027Z,83.30
2019-05-09T22:22:05.293Z,83.70
2019-05-09T22:24:35.344Z,84.20
2019-05-09T22:27:08.177Z,83.80
2019-05-09T22:29:38.031Z,83.60
2019-05-09T22:32:13.325Z,83.70
2019-05-09T22:34:45.692Z,83.50
2019-05-09T22:37:16.085Z,83.80
2019-05-09T22:39:45.825Z,83.90
2019-05-09T22:42:15.530Z,84.20
2019-05-09T22:44:46.870Z,84.60
2019-05-09T22:47:16.547Z,85.00
2019-05-09T22:49:52.777Z,84.80
2019-05-09T22:52:21.777Z,85.00
2019-05-09T22:54:51.747Z,85.10
2019-05-09T22:57:22.602Z,85.00
2019-05-09T22:59:52.264Z,85.00
2019-05-09T23:02:22.092Z,85.00
2019-05-09T23:04:51.804Z,85.50
2019-05-09T23:07:21.482Z,85.70
2019-05-09T23:09:51.258Z,85.60
2019-05-09T23:12:20.965Z,85.90
2019-05-09T23:14:50.622Z,86.10
2019-05-09T23:17:20.902Z,86.30
2019-05-09T23:19:50.625Z,86.40
2019-05-09T23:22:22.240Z,86.50
2019-05-09T23:24:51.874Z,86.70
2019-05-09T23:27:21.810Z,86.60
2019-05-09T23:29:51.791Z,86.60
2019-05-09T23:32:23.450Z,87.50
2019-05-09T23:34:53.158Z,87.40
2019-05-09T23:37:22.983Z,87.50
2019-05-09T23:39:54.702Z,87.60
2019-05-09T23:42:24.927Z,87.90
2019-05-09T23:44:55.109Z,87.70
2019-05-09T23:47:24.822Z,88.00
2019-05-09T23:49:54.799Z,88.00
2019-05-09T23:52:24.792Z,88.10
2019-05-09T23:55:14.041Z,88.10
2019-05-09T23:58:01.614Z,88.00
